sensor_id;sensor_type;location;lat;lon;timestamp;P1;durP1;ratioP1;P2;durP2;ratioP2
51852;SDS011;37894;53.172;6.598;2022-08-19T00:01:51;14.23;;;8.35;;
51852;SDS011;37894;53.172;6.598;2022-08-19T00:04:19;11.57;;;8.35;;
51852;SDS011;37894;53.172;6.598;2022-08-19T00:06:47;12.45;;;7.82;;
51852;SDS011;37894;53.172;6.598;2022-08-19T00:09:13;12.60;;;8.35;;
51852;SDS011;37894;53.172;6.598;2022-08-19T00:11:41;13.13;;;7.68;;
51852;SDS011;37894;53.172;6.598;2022-08-19T00:14:09;10.60;;;7.80;;
51852;SDS011;37894;53.172;6.598;2022-08-19T00:16:40;13.27;;;7.88;;
51852;SDS011;37894;53.172;6.598;2022-08-19T00:19:08;13.95;;;7.78;;
51852;SDS011;37894;53.172;6.598;2022-08-19T00:21:34;14.68;;;8.27;;
51852;SDS011;37894;53.172;6.598;2022-08-19T00:24:04;13.15;;;8.77;;
51852;SDS011;37894;53.172;6.598;2022-08-19T00:26:31;11.98;;;7.95;;
51852;SDS011;37894;53.172;6.598;2022-08-19T00:28:56;13.00;;;8.50;;
51852;SDS011;37894;53.172;6.598;2022-08-19T00:31:22;13.63;;;8.07;;
51852;SDS011;37894;53.172;6.598;2022-08-19T00:33:48;13.05;;;8.45;;
51852;SDS011;37894;53.172;6.598;2022-08-19T00:36:16;13.13;;;8.85;;
51852;SDS011;37894;53.172;6.598;2022-08-19T00:38:42;12.27;;;7.60;;
51852;SDS011;37894;53.172;6.598;2022-08-19T00:41:13;13.15;;;8.63;;
51852;SDS011;37894;53.172;6.598;2022-08-19T00:43:40;14.87;;;8.67;;
51852;SDS011;37894;53.172;6.598;2022-08-19T00:46:06;11.40;;;7.78;;
51852;SDS011;37894;53.172;6.598;2022-08-19T00:48:32;12.30;;;8.20;;
51852;SDS011;37894;53.172;6.598;2022-08-19T00:50:59;11.73;;;8.23;;
51852;SDS011;37894;53.172;6.598;2022-08-19T00:53:26;13.15;;;8.13;;
51852;SDS011;37894;53.172;6.598;2022-08-19T00:55:56;13.32;;;8.75;;
51852;SDS011;37894;53.172;6.598;2022-08-19T00:58:25;12.75;;;8.10;;
51852;SDS011;37894;53.172;6.598;2022-08-19T01:00:55;13.52;;;8.65;;
51852;SDS011;37894;53.172;6.598;2022-08-19T01:03:21;15.23;;;8.50;;
51852;SDS011;37894;53.172;6.598;2022-08-19T01:05:48;13.82;;;8.13;;
51852;SDS011;37894;53.172;6.598;2022-08-19T01:08:16;14.55;;;8.63;;
51852;SDS011;37894;53.172;6.598;2022-08-19T01:10:44;15.35;;;9.60;;
51852;SDS011;37894;53.172;6.598;2022-08-19T01:13:19;14.07;;;9.05;;
51852;SDS011;37894;53.172;6.598;2022-08-19T01:15:55;11.77;;;8.20;;
51852;SDS011;37894;53.172;6.598;2022-08-19T01:18:24;12.95;;;7.97;;
51852;SDS011;37894;53.172;6.598;2022-08-19T01:20:51;13.98;;;7.97;;
51852;SDS011;37894;53.172;6.598;2022-08-19T01:23:20;16.10;;;8.82;;
51852;SDS011;37894;53.172;6.598;2022-08-19T01:25:48;15.15;;;8.23;;
51852;SDS011;37894;53.172;6.598;2022-08-19T01:28:19;17.85;;;8.93;;
51852;SDS011;37894;53.172;6.598;2022-08-19T01:30:51;13.77;;;8.18;;
51852;SDS011;37894;53.172;6.598;2022-08-19T01:33:20;14.23;;;8.38;;
51852;SDS011;37894;53.172;6.598;2022-08-19T01:35:46;18.08;;;9.13;;
51852;SDS011;37894;53.172;6.598;2022-08-19T01:38:24;14.00;;;8.48;;
51852;SDS011;37894;53.172;6.598;2022-08-19T01:40:51;16.25;;;9.32;;
51852;SDS011;37894;53.172;6.598;2022-08-19T01:43:17;12.57;;;8.13;;
51852;SDS011;37894;53.172;6.598;2022-08-19T01:45:44;14.10;;;8.38;;
51852;SDS011;37894;53.172;6.598;2022-08-19T01:48:10;15.18;;;9.95;;
51852;SDS011;37894;53.172;6.598;2022-08-19T01:50:37;13.30;;;8.85;;
51852;SDS011;37894;53.172;6.598;2022-08-19T01:53:04;13.45;;;8.55;;
51852;SDS011;37894;53.172;6.598;2022-08-19T01:55:32;14.30;;;9.25;;
51852;SDS011;37894;53.172;6.598;2022-08-19T01:58:00;14.70;;;9.23;;
51852;SDS011;37894;53.172;6.598;2022-08-19T02:00:29;13.98;;;8.80;;
51852;SDS011;37894;53.172;6.598;2022-08-19T02:02:57;14.60;;;9.80;;
51852;SDS011;37894;53.172;6.598;2022-08-19T02:05:23;17.08;;;10.32;;
51852;SDS011;37894;53.172;6.598;2022-08-19T02:07:49;17.58;;;9.85;;
51852;SDS011;37894;53.172;6.598;2022-08-19T02:10:16;15.32;;;9.80;;
51852;SDS011;37894;53.172;6.598;2022-08-19T02:12:44;16.00;;;9.40;;
51852;SDS011;37894;53.172;6.598;2022-08-19T02:15:10;15.25;;;9.23;;
51852;SDS011;37894;53.172;6.598;2022-08-19T02:17:36;14.38;;;9.07;;
51852;SDS011;37894;53.172;6.598;2022-08-19T02:20:02;14.25;;;8.93;;
51852;SDS011;37894;53.172;6.598;2022-08-19T02:22:29;13.38;;;8.65;;
51852;SDS011;37894;53.172;6.598;2022-08-19T02:24:55;12.57;;;9.05;;
51852;SDS011;37894;53.172;6.598;2022-08-19T02:27:21;15.23;;;8.75;;
51852;SDS011;37894;53.172;6.598;2022-08-19T02:29:47;13.38;;;8.63;;
51852;SDS011;37894;53.172;6.598;2022-08-19T02:32:14;13.25;;;8.43;;
51852;SDS011;37894;53.172;6.598;2022-08-19T02:34:40;16.05;;;9.50;;
51852;SDS011;37894;53.172;6.598;2022-08-19T02:37:06;13.25;;;8.68;;
51852;SDS011;37894;53.172;6.598;2022-08-19T02:39:52;13.18;;;8.25;;
51852;SDS011;37894;53.172;6.598;2022-08-19T02:42:17;13.82;;;9.18;;
51852;SDS011;37894;53.172;6.598;2022-08-19T02:44:43;14.38;;;8.95;;
51852;SDS011;37894;53.172;6.598;2022-08-19T02:47:09;19.45;;;9.43;;
51852;SDS011;37894;53.172;6.598;2022-08-19T02:49:35;14.52;;;8.98;;
51852;SDS011;37894;53.172;6.598;2022-08-19T02:52:02;15.55;;;9.02;;
51852;SDS011;37894;53.172;6.598;2022-08-19T02:54:27;17.40;;;9.88;;
51852;SDS011;37894;53.172;6.598;2022-08-19T02:56:53;13.43;;;8.48;;
51852;SDS011;37894;53.172;6.598;2022-08-19T02:59:19;18.75;;;9.32;;
51852;SDS011;37894;53.172;6.598;2022-08-19T03:01:46;14.48;;;9.13;;
51852;SDS011;37894;53.172;6.598;2022-08-19T03:04:12;15.45;;;8.70;;
51852;SDS011;37894;53.172;6.598;2022-08-19T03:06:40;15.38;;;8.38;;
51852;SDS011;37894;53.172;6.598;2022-08-19T03:09:07;12.35;;;8.50;;
51852;SDS011;37894;53.172;6.598;2022-08-19T03:11:33;14.98;;;9.50;;
51852;SDS011;37894;53.172;6.598;2022-08-19T03:14:00;18.13;;;9.82;;
51852;SDS011;37894;53.172;6.598;2022-08-19T03:16:32;18.85;;;9.82;;
51852;SDS011;37894;53.172;6.598;2022-08-19T03:19:04;17.63;;;9.82;;
51852;SDS011;37894;53.172;6.598;2022-08-19T03:21:31;14.25;;;9.80;;
51852;SDS011;37894;53.172;6.598;2022-08-19T03:24:00;17.70;;;9.90;;
51852;SDS011;37894;53.172;6.598;2022-08-19T03:26:28;19.65;;;11.27;;
51852;SDS011;37894;53.172;6.598;2022-08-19T03:28:55;20.38;;;10.73;;
51852;SDS011;37894;53.172;6.598;2022-08-19T03:31:21;15.38;;;9.70;;
51852;SDS011;37894;53.172;6.598;2022-08-19T03:33:48;14.90;;;9.13;;
51852;SDS011;37894;53.172;6.598;2022-08-19T03:36:15;14.30;;;9.45;;
51852;SDS011;37894;53.172;6.598;2022-08-19T03:38:47;18.98;;;11.00;;
51852;SDS011;37894;53.172;6.598;2022-08-19T03:41:16;18.38;;;10.30;;
51852;SDS011;37894;53.172;6.598;2022-08-19T03:43:44;20.85;;;10.75;;
51852;SDS011;37894;53.172;6.598;2022-08-19T03:46:18;15.75;;;10.52;;
51852;SDS011;37894;53.172;6.598;2022-08-19T03:48:47;22.42;;;11.77;;
51852;SDS011;37894;53.172;6.598;2022-08-19T03:51:21;23.25;;;11.60;;
51852;SDS011;37894;53.172;6.598;2022-08-19T03:53:54;26.02;;;11.98;;
51852;SDS011;37894;53.172;6.598;2022-08-19T03:56:20;23.80;;;12.80;;
51852;SDS011;37894;53.172;6.598;2022-08-19T03:58:47;25.40;;;12.45;;
51852;SDS011;37894;53.172;6.598;2022-08-19T04:01:15;25.05;;;12.88;;
51852;SDS011;37894;53.172;6.598;2022-08-19T04:03:44;24.05;;;12.00;;
51852;SDS011;37894;53.172;6.598;2022-08-19T04:06:12;20.65;;;11.27;;
51852;SDS011;37894;53.172;6.598;2022-08-19T04:08:41;20.10;;;12.43;;
51852;SDS011;37894;53.172;6.598;2022-08-19T04:11:12;21.52;;;11.98;;
51852;SDS011;37894;53.172;6.598;2022-08-19T04:13:39;27.83;;;12.55;;
51852;SDS011;37894;53.172;6.598;2022-08-19T04:16:06;25.40;;;13.20;;
51852;SDS011;37894;53.172;6.598;2022-08-19T04:18:34;35.72;;;13.82;;
51852;SDS011;37894;53.172;6.598;2022-08-19T04:21:01;22.38;;;12.32;;
51852;SDS011;37894;53.172;6.598;2022-08-19T04:23:27;18.75;;;10.82;;
51852;SDS011;37894;53.172;6.598;2022-08-19T04:25:53;20.42;;;11.20;;
51852;SDS011;37894;53.172;6.598;2022-08-19T04:28:19;17.20;;;10.70;;
51852;SDS011;37894;53.172;6.598;2022-08-19T04:30:48;19.52;;;10.65;;
51852;SDS011;37894;53.172;6.598;2022-08-19T04:33:16;20.23;;;11.32;;
51852;SDS011;37894;53.172;6.598;2022-08-19T04:35:45;19.90;;;11.20;;
51852;SDS011;37894;53.172;6.598;2022-08-19T04:38:13;20.67;;;11.95;;
51852;SDS011;37894;53.172;6.598;2022-08-19T04:40:46;17.60;;;11.50;;
51852;SDS011;37894;53.172;6.598;2022-08-19T04:43:33;20.75;;;11.75;;
51852;SDS011;37894;53.172;6.598;2022-08-19T04:46:07;19.20;;;10.15;;
51852;SDS011;37894;53.172;6.598;2022-08-19T04:48:34;16.73;;;9.57;;
51852;SDS011;37894;53.172;6.598;2022-08-19T04:51:00;17.90;;;10.45;;
51852;SDS011;37894;53.172;6.598;2022-08-19T04:53:31;18.73;;;11.35;;
51852;SDS011;37894;53.172;6.598;2022-08-19T04:55:58;17.85;;;10.43;;
51852;SDS011;37894;53.172;6.598;2022-08-19T04:58:28;23.00;;;11.68;;
51852;SDS011;37894;53.172;6.598;2022-08-19T05:00:54;19.55;;;11.55;;
51852;SDS011;37894;53.172;6.598;2022-08-19T05:03:20;19.60;;;10.90;;
51852;SDS011;37894;53.172;6.598;2022-08-19T05:05:47;19.23;;;10.82;;
51852;SDS011;37894;53.172;6.598;2022-08-19T05:08:15;21.85;;;11.82;;
51852;SDS011;37894;53.172;6.598;2022-08-19T05:10:45;22.65;;;11.52;;
51852;SDS011;37894;53.172;6.598;2022-08-19T05:13:15;18.30;;;11.10;;
51852;SDS011;37894;53.172;6.598;2022-08-19T05:15:43;17.95;;;11.10;;
51852;SDS011;37894;53.172;6.598;2022-08-19T05:18:10;17.25;;;10.05;;
51852;SDS011;37894;53.172;6.598;2022-08-19T05:20:53;20.63;;;11.27;;
51852;SDS011;37894;53.172;6.598;2022-08-19T05:23:38;20.50;;;10.57;;
51852;SDS011;37894;53.172;6.598;2022-08-19T05:26:04;22.95;;;11.52;;
51852;SDS011;37894;53.172;6.598;2022-08-19T05:28:30;26.88;;;12.95;;
51852;SDS011;37894;53.172;6.598;2022-08-19T05:30:56;23.58;;;12.55;;
51852;SDS011;37894;53.172;6.598;2022-08-19T05:33:22;28.45;;;13.02;;
51852;SDS011;37894;53.172;6.598;2022-08-19T05:35:49;28.48;;;14.30;;
51852;SDS011;37894;53.172;6.598;2022-08-19T05:38:15;30.25;;;14.95;;
51852;SDS011;37894;53.172;6.598;2022-08-19T05:40:42;27.50;;;13.52;;
51852;SDS011;37894;53.172;6.598;2022-08-19T05:43:12;28.20;;;13.73;;
51852;SDS011;37894;53.172;6.598;2022-08-19T05:45:41;33.58;;;15.07;;
51852;SDS011;37894;53.172;6.598;2022-08-19T05:48:08;36.67;;;14.77;;
51852;SDS011;37894;53.172;6.598;2022-08-19T05:50:37;29.02;;;14.10;;
51852;SDS011;37894;53.172;6.598;2022-08-19T05:53:03;31.42;;;15.75;;
51852;SDS011;37894;53.172;6.598;2022-08-19T05:55:29;32.95;;;14.65;;
51852;SDS011;37894;53.172;6.598;2022-08-19T05:57:55;33.53;;;14.48;;
51852;SDS011;37894;53.172;6.598;2022-08-19T06:00:21;33.85;;;15.63;;
51852;SDS011;37894;53.172;6.598;2022-08-19T06:02:48;34.95;;;15.52;;
51852;SDS011;37894;53.172;6.598;2022-08-19T06:05:13;31.58;;;14.85;;
51852;SDS011;37894;53.172;6.598;2022-08-19T06:07:39;31.63;;;15.15;;
51852;SDS011;37894;53.172;6.598;2022-08-19T06:10:06;34.03;;;15.20;;
51852;SDS011;37894;53.172;6.598;2022-08-19T06:12:34;30.45;;;15.00;;
51852;SDS011;37894;53.172;6.598;2022-08-19T06:15:02;28.35;;;14.50;;
51852;SDS011;37894;53.172;6.598;2022-08-19T06:17:37;30.38;;;14.13;;
51852;SDS011;37894;53.172;6.598;2022-08-19T06:20:03;33.35;;;14.93;;
51852;SDS011;37894;53.172;6.598;2022-08-19T06:22:46;29.33;;;13.93;;
51852;SDS011;37894;53.172;6.598;2022-08-19T06:25:14;23.73;;;13.48;;
51852;SDS011;37894;53.172;6.598;2022-08-19T06:27:40;21.75;;;12.55;;
51852;SDS011;37894;53.172;6.598;2022-08-19T06:30:06;23.02;;;13.15;;
51852;SDS011;37894;53.172;6.598;2022-08-19T06:32:32;22.40;;;14.20;;
51852;SDS011;37894;53.172;6.598;2022-08-19T06:34:58;19.27;;;12.93;;
51852;SDS011;37894;53.172;6.598;2022-08-19T06:37:24;25.25;;;13.13;;
51852;SDS011;37894;53.172;6.598;2022-08-19T06:39:50;20.35;;;12.93;;
51852;SDS011;37894;53.172;6.598;2022-08-19T06:42:15;24.20;;;13.25;;
51852;SDS011;37894;53.172;6.598;2022-08-19T06:44:44;22.13;;;12.32;;
51852;SDS011;37894;53.172;6.598;2022-08-19T06:47:13;20.27;;;12.40;;
51852;SDS011;37894;53.172;6.598;2022-08-19T06:49:40;20.00;;;13.27;;
51852;SDS011;37894;53.172;6.598;2022-08-19T06:52:07;19.95;;;12.02;;
51852;SDS011;37894;53.172;6.598;2022-08-19T06:54:33;18.65;;;11.82;;
51852;SDS011;37894;53.172;6.598;2022-08-19T06:56:59;20.85;;;11.43;;
51852;SDS011;37894;53.172;6.598;2022-08-19T06:59:28;20.67;;;11.55;;
51852;SDS011;37894;53.172;6.598;2022-08-19T07:01:57;16.10;;;11.30;;
51852;SDS011;37894;53.172;6.598;2022-08-19T07:04:26;16.65;;;10.18;;
51852;SDS011;37894;53.172;6.598;2022-08-19T07:06:58;17.17;;;10.85;;
51852;SDS011;37894;53.172;6.598;2022-08-19T07:09:24;15.05;;;10.57;;
51852;SDS011;37894;53.172;6.598;2022-08-19T07:11:50;17.83;;;10.60;;
51852;SDS011;37894;53.172;6.598;2022-08-19T07:14:18;17.55;;;10.52;;
51852;SDS011;37894;53.172;6.598;2022-08-19T07:16:48;15.75;;;10.32;;
51852;SDS011;37894;53.172;6.598;2022-08-19T07:19:16;17.85;;;10.05;;
51852;SDS011;37894;53.172;6.598;2022-08-19T07:21:43;18.25;;;10.23;;
51852;SDS011;37894;53.172;6.598;2022-08-19T07:24:09;16.60;;;10.52;;
51852;SDS011;37894;53.172;6.598;2022-08-19T07:26:40;15.23;;;10.82;;
51852;SDS011;37894;53.172;6.598;2022-08-19T07:29:07;15.02;;;10.32;;
51852;SDS011;37894;53.172;6.598;2022-08-19T07:31:33;18.35;;;10.40;;
51852;SDS011;37894;53.172;6.598;2022-08-19T07:34:06;17.38;;;10.07;;
51852;SDS011;37894;53.172;6.598;2022-08-19T07:36:36;16.55;;;9.95;;
51852;SDS011;37894;53.172;6.598;2022-08-19T07:39:10;16.13;;;10.50;;
51852;SDS011;37894;53.172;6.598;2022-08-19T07:41:41;14.82;;;9.07;;
51852;SDS011;37894;53.172;6.598;2022-08-19T07:44:08;14.30;;;8.68;;
51852;SDS011;37894;53.172;6.598;2022-08-19T07:46:35;16.25;;;9.57;;
51852;SDS011;37894;53.172;6.598;2022-08-19T07:49:02;14.75;;;8.15;;
51852;SDS011;37894;53.172;6.598;2022-08-19T07:51:30;13.00;;;9.52;;
51852;SDS011;37894;53.172;6.598;2022-08-19T07:53:56;13.90;;;8.25;;
51852;SDS011;37894;53.172;6.598;2022-08-19T07:56:22;13.45;;;8.60;;
51852;SDS011;37894;53.172;6.598;2022-08-19T07:58:49;11.60;;;8.02;;
51852;SDS011;37894;53.172;6.598;2022-08-19T08:01:17;10.35;;;7.57;;
51852;SDS011;37894;53.172;6.598;2022-08-19T08:03:46;9.65;;;6.93;;
51852;SDS011;37894;53.172;6.598;2022-08-19T08:06:31;10.00;;;7.35;;
51852;SDS011;37894;53.172;6.598;2022-08-19T08:09:17;9.35;;;6.93;;
51852;SDS011;37894;53.172;6.598;2022-08-19T08:11:49;12.25;;;8.48;;
51852;SDS011;37894;53.172;6.598;2022-08-19T08:14:23;13.32;;;8.35;;
51852;SDS011;37894;53.172;6.598;2022-08-19T08:16:57;12.48;;;8.90;;
51852;SDS011;37894;53.172;6.598;2022-08-19T08:19:24;11.55;;;8.80;;
51852;SDS011;37894;53.172;6.598;2022-08-19T08:21:51;12.82;;;8.32;;
51852;SDS011;37894;53.172;6.598;2022-08-19T08:24:19;12.30;;;7.85;;
51852;SDS011;37894;53.172;6.598;2022-08-19T08:26:45;11.38;;;6.93;;
51852;SDS011;37894;53.172;6.598;2022-08-19T08:29:11;9.07;;;6.57;;
51852;SDS011;37894;53.172;6.598;2022-08-19T08:31:39;9.30;;;6.60;;
51852;SDS011;37894;53.172;6.598;2022-08-19T08:34:05;10.15;;;6.53;;
51852;SDS011;37894;53.172;6.598;2022-08-19T08:36:32;11.95;;;7.05;;
51852;SDS011;37894;53.172;6.598;2022-08-19T08:38:58;11.43;;;7.07;;
51852;SDS011;37894;53.172;6.598;2022-08-19T08:41:31;11.68;;;7.10;;
51852;SDS011;37894;53.172;6.598;2022-08-19T08:44:22;10.60;;;6.90;;
51852;SDS011;37894;53.172;6.598;2022-08-19T08:46:55;10.38;;;6.82;;
51852;SDS011;37894;53.172;6.598;2022-08-19T08:54:42;9.48;;;5.97;;
51852;SDS011;37894;53.172;6.598;2022-08-19T08:57:12;9.57;;;6.82;;
51852;SDS011;37894;53.172;6.598;2022-08-19T08:59:43;9.13;;;7.78;;
51852;SDS011;37894;53.172;6.598;2022-08-19T09:02:16;10.55;;;6.05;;
51852;SDS011;37894;53.172;6.598;2022-08-19T09:04:42;11.85;;;6.72;;
51852;SDS011;37894;53.172;6.598;2022-08-19T09:10:04;9.85;;;5.30;;
51852;SDS011;37894;53.172;6.598;2022-08-19T09:15:35;12.13;;;6.90;;
51852;SDS011;37894;53.172;6.598;2022-08-19T09:18:05;8.10;;;6.88;;
51852;SDS011;37894;53.172;6.598;2022-08-19T09:20:33;9.68;;;6.45;;
51852;SDS011;37894;53.172;6.598;2022-08-19T09:22:59;10.50;;;6.75;;
51852;SDS011;37894;53.172;6.598;2022-08-19T09:25:24;8.88;;;6.07;;
51852;SDS011;37894;53.172;6.598;2022-08-19T09:27:51;8.20;;;6.32;;
51852;SDS011;37894;53.172;6.598;2022-08-19T09:30:26;11.55;;;8.27;;
51852;SDS011;37894;53.172;6.598;2022-08-19T09:32:53;7.95;;;6.28;;
51852;SDS011;37894;53.172;6.598;2022-08-19T09:35:24;9.43;;;6.90;;
51852;SDS011;37894;53.172;6.598;2022-08-19T09:37:53;8.73;;;6.35;;
51852;SDS011;37894;53.172;6.598;2022-08-19T09:40:20;8.90;;;7.75;;
51852;SDS011;37894;53.172;6.598;2022-08-19T09:42:46;8.93;;;7.18;;
51852;SDS011;37894;53.172;6.598;2022-08-19T09:45:12;12.85;;;7.22;;
51852;SDS011;37894;53.172;6.598;2022-08-19T09:47:42;10.80;;;7.43;;
51852;SDS011;37894;53.172;6.598;2022-08-19T09:50:09;11.35;;;7.82;;
51852;SDS011;37894;53.172;6.598;2022-08-19T09:52:36;9.77;;;6.93;;
51852;SDS011;37894;53.172;6.598;2022-08-19T09:55:06;9.73;;;6.78;;
51852;SDS011;37894;53.172;6.598;2022-08-19T09:57:33;9.18;;;6.15;;
51852;SDS011;37894;53.172;6.598;2022-08-19T10:00:00;8.95;;;7.22;;
51852;SDS011;37894;53.172;6.598;2022-08-19T10:02:26;13.05;;;9.80;;
51852;SDS011;37894;53.172;6.598;2022-08-19T10:04:51;14.88;;;9.77;;
51852;SDS011;37894;53.172;6.598;2022-08-19T10:07:36;12.68;;;8.10;;
51852;SDS011;37894;53.172;6.598;2022-08-19T10:10:03;10.07;;;8.23;;
51852;SDS011;37894;53.172;6.598;2022-08-19T10:12:31;11.02;;;7.53;;
51852;SDS011;37894;53.172;6.598;2022-08-19T10:14:57;12.68;;;8.73;;
51852;SDS011;37894;53.172;6.598;2022-08-19T10:17:23;8.80;;;7.88;;
51852;SDS011;37894;53.172;6.598;2022-08-19T10:19:50;11.00;;;8.48;;
51852;SDS011;37894;53.172;6.598;2022-08-19T10:22:17;11.48;;;7.50;;
51852;SDS011;37894;53.172;6.598;2022-08-19T10:24:43;10.55;;;8.20;;
51852;SDS011;37894;53.172;6.598;2022-08-19T10:27:11;9.20;;;7.20;;
51852;SDS011;37894;53.172;6.598;2022-08-19T10:29:38;9.38;;;7.55;;
51852;SDS011;37894;53.172;6.598;2022-08-19T10:32:05;10.82;;;8.23;;
51852;SDS011;37894;53.172;6.598;2022-08-19T10:34:32;9.85;;;6.20;;
51852;SDS011;37894;53.172;6.598;2022-08-19T10:36:58;9.50;;;7.20;;
51852;SDS011;37894;53.172;6.598;2022-08-19T10:39:25;11.27;;;7.72;;
51852;SDS011;37894;53.172;6.598;2022-08-19T10:41:54;8.57;;;6.38;;
51852;SDS011;37894;53.172;6.598;2022-08-19T10:44:21;9.35;;;7.47;;
51852;SDS011;37894;53.172;6.598;2022-08-19T10:46:48;9.98;;;6.85;;
51852;SDS011;37894;53.172;6.598;2022-08-19T10:49:13;9.45;;;7.38;;
51852;SDS011;37894;53.172;6.598;2022-08-19T10:51:39;9.38;;;6.88;;
51852;SDS011;37894;53.172;6.598;2022-08-19T10:54:25;17.30;;;8.32;;
51852;SDS011;37894;53.172;6.598;2022-08-19T10:57:11;14.90;;;6.78;;
51852;SDS011;37894;53.172;6.598;2022-08-19T10:59:37;7.72;;;5.55;;
51852;SDS011;37894;53.172;6.598;2022-08-19T11:02:05;7.30;;;5.85;;
51852;SDS011;37894;53.172;6.598;2022-08-19T11:04:38;8.18;;;5.93;;
51852;SDS011;37894;53.172;6.598;2022-08-19T11:07:05;7.90;;;5.50;;
51852;SDS011;37894;53.172;6.598;2022-08-19T11:09:36;8.55;;;5.63;;
51852;SDS011;37894;53.172;6.598;2022-08-19T11:12:05;9.50;;;6.95;;
51852;SDS011;37894;53.172;6.598;2022-08-19T11:14:33;10.95;;;7.20;;
51852;SDS011;37894;53.172;6.598;2022-08-19T11:16:59;9.43;;;7.47;;
51852;SDS011;37894;53.172;6.598;2022-08-19T11:19:25;11.75;;;9.20;;
51852;SDS011;37894;53.172;6.598;2022-08-19T11:21:51;11.20;;;8.77;;
51852;SDS011;37894;53.172;6.598;2022-08-19T11:24:21;8.40;;;6.88;;
51852;SDS011;37894;53.172;6.598;2022-08-19T11:26:48;7.78;;;6.32;;
51852;SDS011;37894;53.172;6.598;2022-08-19T11:29:17;9.32;;;7.43;;
51852;SDS011;37894;53.172;6.598;2022-08-19T11:31:50;8.15;;;6.07;;
51852;SDS011;37894;53.172;6.598;2022-08-19T11:34:20;9.63;;;7.13;;
51852;SDS011;37894;53.172;6.598;2022-08-19T11:36:48;6.53;;;5.60;;
51852;SDS011;37894;53.172;6.598;2022-08-19T11:39:17;7.22;;;5.75;;
51852;SDS011;37894;53.172;6.598;2022-08-19T11:41:45;5.78;;;4.85;;
51852;SDS011;37894;53.172;6.598;2022-08-19T11:44:11;7.20;;;5.68;;
51852;SDS011;37894;53.172;6.598;2022-08-19T11:46:39;11.52;;;7.35;;
51852;SDS011;37894;53.172;6.598;2022-08-19T11:49:06;7.97;;;6.70;;
51852;SDS011;37894;53.172;6.598;2022-08-19T11:51:34;8.80;;;7.20;;
51852;SDS011;37894;53.172;6.598;2022-08-19T11:54:00;11.75;;;6.80;;
51852;SDS011;37894;53.172;6.598;2022-08-19T11:56:26;9.75;;;7.38;;
51852;SDS011;37894;53.172;6.598;2022-08-19T11:58:53;8.27;;;7.43;;
51852;SDS011;37894;53.172;6.598;2022-08-19T12:01:22;13.10;;;8.32;;
51852;SDS011;37894;53.172;6.598;2022-08-19T12:03:49;10.32;;;7.28;;
51852;SDS011;37894;53.172;6.598;2022-08-19T12:06:17;8.32;;;6.80;;
51852;SDS011;37894;53.172;6.598;2022-08-19T12:08:48;8.57;;;7.22;;
51852;SDS011;37894;53.172;6.598;2022-08-19T12:11:14;7.93;;;6.88;;
51852;SDS011;37894;53.172;6.598;2022-08-19T12:13:41;9.70;;;6.95;;
51852;SDS011;37894;53.172;6.598;2022-08-19T12:16:12;9.15;;;6.63;;
51852;SDS011;37894;53.172;6.598;2022-08-19T12:18:57;12.70;;;8.82;;
51852;SDS011;37894;53.172;6.598;2022-08-19T12:21:28;10.90;;;7.70;;
51852;SDS011;37894;53.172;6.598;2022-08-19T12:23:54;12.98;;;8.38;;
51852;SDS011;37894;53.172;6.598;2022-08-19T12:26:22;11.63;;;8.50;;
51852;SDS011;37894;53.172;6.598;2022-08-19T12:28:49;11.57;;;8.77;;
51852;SDS011;37894;53.172;6.598;2022-08-19T12:31:15;12.95;;;8.50;;
51852;SDS011;37894;53.172;6.598;2022-08-19T12:33:41;12.07;;;8.05;;
51852;SDS011;37894;53.172;6.598;2022-08-19T12:36:08;9.50;;;6.53;;
51852;SDS011;37894;53.172;6.598;2022-08-19T12:38:35;8.77;;;6.55;;
51852;SDS011;37894;53.172;6.598;2022-08-19T12:41:02;12.55;;;7.55;;
51852;SDS011;37894;53.172;6.598;2022-08-19T12:43:31;9.00;;;7.47;;
51852;SDS011;37894;53.172;6.598;2022-08-19T12:46:00;10.25;;;7.60;;
51852;SDS011;37894;53.172;6.598;2022-08-19T12:48:27;12.02;;;6.53;;
51852;SDS011;37894;53.172;6.598;2022-08-19T12:50:54;8.90;;;6.75;;
51852;SDS011;37894;53.172;6.598;2022-08-19T12:53:19;8.52;;;6.63;;
51852;SDS011;37894;53.172;6.598;2022-08-19T12:55:45;11.57;;;7.72;;
51852;SDS011;37894;53.172;6.598;2022-08-19T12:58:11;10.90;;;7.13;;
51852;SDS011;37894;53.172;6.598;2022-08-19T13:00:37;10.13;;;6.90;;
51852;SDS011;37894;53.172;6.598;2022-08-19T13:03:03;12.00;;;7.00;;
51852;SDS011;37894;53.172;6.598;2022-08-19T13:05:30;10.73;;;7.05;;
51852;SDS011;37894;53.172;6.598;2022-08-19T13:07:58;7.38;;;6.10;;
51852;SDS011;37894;53.172;6.598;2022-08-19T13:10:29;8.23;;;6.95;;
51852;SDS011;37894;53.172;6.598;2022-08-19T13:12:59;8.95;;;6.35;;
51852;SDS011;37894;53.172;6.598;2022-08-19T13:15:27;11.18;;;6.55;;
51852;SDS011;37894;53.172;6.598;2022-08-19T13:17:56;8.32;;;6.80;;
51852;SDS011;37894;53.172;6.598;2022-08-19T13:20:23;11.07;;;7.35;;
51852;SDS011;37894;53.172;6.598;2022-08-19T13:22:49;9.52;;;6.35;;
51852;SDS011;37894;53.172;6.598;2022-08-19T13:25:15;10.13;;;7.05;;
51852;SDS011;37894;53.172;6.598;2022-08-19T13:27:43;9.77;;;7.07;;
51852;SDS011;37894;53.172;6.598;2022-08-19T13:30:10;13.55;;;7.22;;
51852;SDS011;37894;53.172;6.598;2022-08-19T13:32:56;10.73;;;6.22;;
51852;SDS011;37894;53.172;6.598;2022-08-19T13:35:38;14.60;;;8.88;;
51852;SDS011;37894;53.172;6.598;2022-08-19T13:38:04;15.70;;;10.15;;
51852;SDS011;37894;53.172;6.598;2022-08-19T13:40:31;12.02;;;9.48;;
51852;SDS011;37894;53.172;6.598;2022-08-19T13:43:00;13.40;;;10.15;;
51852;SDS011;37894;53.172;6.598;2022-08-19T13:45:28;13.05;;;9.82;;
51852;SDS011;37894;53.172;6.598;2022-08-19T13:47:56;14.32;;;9.30;;
51852;SDS011;37894;53.172;6.598;2022-08-19T13:50:23;12.32;;;8.07;;
51852;SDS011;37894;53.172;6.598;2022-08-19T13:52:52;10.45;;;7.63;;
51852;SDS011;37894;53.172;6.598;2022-08-19T13:55:19;9.75;;;6.18;;
51852;SDS011;37894;53.172;6.598;2022-08-19T13:57:45;11.82;;;7.38;;
51852;SDS011;37894;53.172;6.598;2022-08-19T14:00:15;8.32;;;5.32;;
51852;SDS011;37894;53.172;6.598;2022-08-19T14:02:45;10.25;;;5.40;;
51852;SDS011;37894;53.172;6.598;2022-08-19T14:05:13;6.72;;;4.88;;
51852;SDS011;37894;53.172;6.598;2022-08-19T14:07:40;8.10;;;5.13;;
51852;SDS011;37894;53.172;6.598;2022-08-19T14:10:07;7.72;;;4.80;;
51852;SDS011;37894;53.172;6.598;2022-08-19T14:12:36;8.32;;;5.25;;
51852;SDS011;37894;53.172;6.598;2022-08-19T14:15:10;8.88;;;5.55;;
51852;SDS011;37894;53.172;6.598;2022-08-19T14:17:42;7.68;;;5.03;;
51852;SDS011;37894;53.172;6.598;2022-08-19T14:20:14;10.27;;;5.72;;
51852;SDS011;37894;53.172;6.598;2022-08-19T14:22:40;6.82;;;5.28;;
51852;SDS011;37894;53.172;6.598;2022-08-19T14:25:11;11.98;;;5.70;;
51852;SDS011;37894;53.172;6.598;2022-08-19T14:27:41;8.15;;;6.10;;
51852;SDS011;37894;53.172;6.598;2022-08-19T14:30:08;10.63;;;6.60;;
51852;SDS011;37894;53.172;6.598;2022-08-19T14:32:35;10.15;;;6.07;;
51852;SDS011;37894;53.172;6.598;2022-08-19T14:35:02;12.02;;;7.72;;
51852;SDS011;37894;53.172;6.598;2022-08-19T14:37:29;11.95;;;7.68;;
51852;SDS011;37894;53.172;6.598;2022-08-19T14:39:54;12.73;;;8.63;;
51852;SDS011;37894;53.172;6.598;2022-08-19T14:42:20;11.60;;;8.07;;
51852;SDS011;37894;53.172;6.598;2022-08-19T14:44:46;13.05;;;9.00;;
51852;SDS011;37894;53.172;6.598;2022-08-19T14:47:11;19.05;;;9.55;;
51852;SDS011;37894;53.172;6.598;2022-08-19T14:49:37;10.90;;;7.75;;
51852;SDS011;37894;53.172;6.598;2022-08-19T14:52:04;14.07;;;8.77;;